Time,TemperatureF,DewpointF,PressureIn,WindDirection,WindDirectionDegrees,WindSpeedMPH,WindSpeedGustMPH,Humidity,HourlyPrecipIn,Conditions,Clouds,dailyrainin,SolarRadiationWatts/m^2,SoftwareType,DateUTC
2013-04-17 00:12:00,33.0,16.0,-100.00,WNW,297,17.0,29.0,50,0.00,,,0.00,0.000000,,2013-04-17 07:12:00,
2013-04-17 00:22:00,33.0,16.0,-100.00,WNW,297,17.0,29.0,50,0.00,,,0.00,0.000000,,2013-04-17 07:22:00,
2013-04-17 00:32:00,33.0,16.0,-100.00,WNW,297,17.0,29.0,50,0.00,,,0.00,0.000000,,2013-04-17 07:32:00,
2013-04-17 00:42:00,33.0,16.0,-100.00,WNW,297,17.0,29.0,50,0.00,,,0.00,0.000000,,2013-04-17 07:42:00,
2013-04-17 00:51:00,32.0,18.0,-100.00,NW,309,10.0,33.0,55,0.00,,,0.00,0.000000,,2013-04-17 07:51:00,
2013-04-17 01:22:00,32.0,18.0,-100.00,NW,309,10.0,33.0,55,0.00,,,0.00,0.000000,,2013-04-17 08:22:00,
2013-04-17 01:32:00,32.0,18.0,-100.00,NW,309,10.0,33.0,55,0.00,,,0.00,0.000000,,2013-04-17 08:32:00,
2013-04-17 01:42:00,32.0,18.0,-100.00,NW,309,10.0,33.0,55,0.00,,,0.00,0.000000,,2013-04-17 08:42:00,
2013-04-17 01:51:00,30.0,21.0,-100.00,WSW,258,16.0,25.0,68,0.00,,,0.00,0.000000,,2013-04-17 08:51:00,
2013-04-17 02:12:00,30.0,21.0,-100.00,WSW,258,16.0,25.0,68,0.00,,,0.00,0.000000,,2013-04-17 09:12:00,
2013-04-17 02:22:00,30.0,21.0,-100.00,WSW,258,16.0,25.0,68,0.00,,,0.00,0.000000,,2013-04-17 09:22:00,
2013-04-17 02:33:00,30.0,21.0,-100.00,WSW,258,16.0,25.0,68,0.00,,,0.00,0.000000,,2013-04-17 09:33:00,
2013-04-17 02:42:00,30.0,21.0,-100.00,WSW,258,16.0,25.0,68,0.00,,,0.00,0.000000,,2013-04-17 09:42:00,
2013-04-17 02:51:00,30.0,21.0,-100.00,West,270,13.0,23.0,68,0.00,,,0.00,0.000000,,2013-04-17 09:51:00,
2013-04-17 03:12:00,30.0,21.0,-100.00,West,270,13.0,23.0,68,0.00,,,0.00,0.000000,,2013-04-17 10:12:00,
2013-04-17 03:23:00,30.0,21.0,-100.00,West,270,13.0,23.0,68,0.00,,,0.00,0.000000,,2013-04-17 10:23:00,
2013-04-17 03:32:00,30.0,21.0,-100.00,West,270,13.0,23.0,68,0.00,,,0.00,0.000000,,2013-04-17 10:32:00,
2013-04-17 03:42:00,30.0,21.0,-100.00,West,270,13.0,23.0,68,0.00,,,0.00,0.000000,,2013-04-17 10:42:00,
2013-04-17 03:51:00,30.0,17.0,-100.00,WNW,292,13.0,24.0,58,0.00,,,0.00,0.000000,,2013-04-17 10:51:00,
2013-04-17 04:12:00,30.0,17.0,-100.00,WNW,292,13.0,24.0,58,0.00,,,0.00,0.000000,,2013-04-17 11:12:00,
2013-04-17 04:22:00,30.0,17.0,-100.00,WNW,292,13.0,24.0,58,0.00,,,0.00,0.000000,,2013-04-17 11:22:00,
2013-04-17 04:32:00,30.0,17.0,-100.00,WNW,292,13.0,24.0,58,0.00,,,0.00,0.000000,,2013-04-17 11:32:00,
2013-04-17 04:42:00,30.0,17.0,-100.00,WNW,292,13.0,24.0,58,0.00,,,0.00,0.000000,,2013-04-17 11:42:00,
2013-04-17 04:51:00,30.0,15.0,-100.00,NW,309,10.0,25.0,54,0.00,,,0.00,0.000000,,2013-04-17 11:51:00,
2013-04-17 05:12:00,30.0,15.0,-100.00,NW,309,10.0,25.0,54,0.00,,,0.00,0.000000,,2013-04-17 12:12:00,
2013-04-17 05:22:00,30.0,15.0,-100.00,NW,309,10.0,25.0,54,0.00,,,0.00,0.000000,,2013-04-17 12:22:00,
2013-04-17 05:32:00,30.0,15.0,-100.00,NW,309,10.0,25.0,54,0.00,,,0.00,0.000000,,2013-04-17 12:32:00,
2013-04-17 05:42:00,30.0,15.0,-100.00,NW,309,10.0,25.0,54,0.00,,,0.00,0.000000,,2013-04-17 12:42:00,
2013-04-17 05:51:00,30.0,15.0,-100.00,WNW,303,11.0,21.0,53,0.00,,,0.00,0.000000,,2013-04-17 12:51:00,
2013-04-17 06:22:00,30.0,15.0,-100.00,WNW,303,11.0,21.0,53,0.00,,,0.00,0.000000,,2013-04-17 13:22:00,
2013-04-17 06:32:00,30.0,15.0,-100.00,WNW,303,11.0,21.0,53,0.00,,,0.00,0.000000,,2013-04-17 13:32:00,
2013-04-17 06:42:00,30.0,15.0,-100.00,WNW,303,11.0,21.0,53,0.00,,,0.00,0.000000,,2013-04-17 13:42:00,
2013-04-17 06:51:00,31.0,13.0,-100.00,NW,312,10.0,25.0,46,0.00,,,0.00,31.000000,,2013-04-17 13:51:00,
2013-04-17 07:12:00,31.0,13.0,-100.00,NW,312,10.0,25.0,46,0.00,,,0.00,31.000000,,2013-04-17 14:12:00,
2013-04-17 07:22:00,31.0,13.0,-100.00,NW,312,10.0,25.0,46,0.00,,,0.00,31.000000,,2013-04-17 14:22:00,
2013-04-17 07:32:00,31.0,13.0,-100.00,NW,312,10.0,25.0,46,0.00,,,0.00,31.000000,,2013-04-17 14:32:00,
2013-04-17 07:42:00,31.0,13.0,-100.00,NW,312,10.0,25.0,46,0.00,,,0.00,31.000000,,2013-04-17 14:42:00,
2013-04-17 07:51:00,33.0,9.0,-100.00,NNE,20,14.0,28.0,36,0.00,,,0.00,260.000000,,2013-04-17 14:51:00,
2013-04-17 08:22:00,33.0,9.0,-100.00,NNE,20,14.0,28.0,36,0.00,,,0.00,260.000000,,2013-04-17 15:22:00,
2013-04-17 08:33:00,33.0,9.0,-100.00,NNE,20,14.0,28.0,36,0.00,,,0.00,260.000000,,2013-04-17 15:33:00,
2013-04-17 08:42:00,33.0,9.0,-100.00,NNE,20,14.0,28.0,36,0.00,,,0.00,260.000000,,2013-04-17 15:42:00,
2013-04-17 08:51:00,35.0,9.0,-100.00,NNW,343,16.0,30.0,33,0.00,,,0.00,527.000000,,2013-04-17 15:51:00,
2013-04-17 09:22:00,35.0,9.0,-100.00,NNW,343,16.0,30.0,33,0.00,,,0.00,527.000000,,2013-04-17 16:22:00,
2013-04-17 09:32:00,35.0,9.0,-100.00,NNW,343,16.0,30.0,33,0.00,,,0.00,527.000000,,2013-04-17 16:32:00,
2013-04-17 09:42:00,35.0,9.0,-100.00,NNW,343,16.0,30.0,33,0.00,,,0.00,527.000000,,2013-04-17 16:42:00,
2013-04-17 09:51:00,38.0,9.0,-100.00,NNW,332,14.0,29.0,29,0.00,,,0.00,781.000000,,2013-04-17 16:51:00,
2013-04-17 10:22:00,38.0,9.0,-100.00,NNW,332,14.0,29.0,29,0.00,,,0.00,781.000000,,2013-04-17 17:22:00,
2013-04-17 10:33:00,38.0,9.0,-100.00,NNW,332,14.0,29.0,29,0.00,,,0.00,781.000000,,2013-04-17 17:33:00,
2013-04-17 10:42:00,38.0,9.0,-100.00,NNW,332,14.0,29.0,29,0.00,,,0.00,781.000000,,2013-04-17 17:42:00,
2013-04-17 10:51:00,41.0,8.0,-100.00,NNW,329,14.0,29.0,25,0.00,,,0.00,987.000000,,2013-04-17 17:51:00,
2013-04-17 11:12:00,41.0,8.0,-100.00,NNW,329,14.0,29.0,25,0.00,,,0.00,987.000000,,2013-04-17 18:12:00,
2013-04-17 11:22:00,41.0,8.0,-100.00,NNW,329,14.0,29.0,25,0.00,,,0.00,987.000000,,2013-04-17 18:22:00,
2013-04-17 11:32:00,41.0,8.0,-100.00,NNW,329,14.0,29.0,25,0.00,,,0.00,987.000000,,2013-04-17 18:32:00,
2013-04-17 11:42:00,41.0,8.0,-100.00,NNW,329,14.0,29.0,25,0.00,,,0.00,987.000000,,2013-04-17 18:42:00,
2013-04-17 11:51:00,42.0,5.0,-100.00,NNW,339,14.0,30.0,21,0.00,,,0.00,1129.000000,,2013-04-17 18:51:00,
2013-04-17 12:12:00,42.0,5.0,-100.00,NNW,339,14.0,30.0,21,0.00,,,0.00,1129.000000,,2013-04-17 19:12:00,
2013-04-17 12:22:00,42.0,5.0,-100.00,NNW,339,14.0,30.0,21,0.00,,,0.00,1129.000000,,2013-04-17 19:22:00,
2013-04-17 12:32:00,42.0,5.0,-100.00,NNW,339,14.0,30.0,21,0.00,,,0.00,1129.000000,,2013-04-17 19:32:00,
2013-04-17 12:42:00,42.0,5.0,-100.00,NNW,339,14.0,30.0,21,0.00,,,0.00,1129.000000,,2013-04-17 19:42:00,
2013-04-17 12:51:00,44.0,3.0,-100.00,NW,316,12.0,27.0,18,0.00,,,0.00,1198.000000,,2013-04-17 19:51:00,
2013-04-17 13:22:00,44.0,3.0,-100.00,NW,316,12.0,27.0,18,0.00,,,0.00,1198.000000,,2013-04-17 20:22:00,
2013-04-17 13:32:00,44.0,3.0,-100.00,NW,316,12.0,27.0,18,0.00,,,0.00,1198.000000,,2013-04-17 20:32:00,
2013-04-17 13:42:00,44.0,3.0,-100.00,NW,316,12.0,27.0,18,0.00,,,0.00,1198.000000,,2013-04-17 20:42:00,
2013-04-17 13:51:00,47.0,0.0,-100.00,NNW,341,15.0,33.0,14,0.00,,,0.00,1196.000000,,2013-04-17 20:51:00,
2013-04-17 14:12:00,47.0,0.0,-100.00,NNW,341,15.0,33.0,14,0.00,,,0.00,1196.000000,,2013-04-17 21:12:00,
2013-04-17 14:22:00,47.0,0.0,-100.00,NNW,341,15.0,33.0,14,0.00,,,0.00,1196.000000,,2013-04-17 21:22:00,
2013-04-17 14:32:00,47.0,0.0,-100.00,NNW,341,15.0,33.0,14,0.00,,,0.00,1196.000000,,2013-04-17 21:32:00,
2013-04-17 14:42:00,47.0,0.0,-100.00,NNW,341,15.0,33.0,14,0.00,,,0.00,1196.000000,,2013-04-17 21:42:00,
2013-04-17 14:51:00,50.0,-1.0,-100.00,NW,315,10.0,25.0,12,0.00,,,-99.99,1120.000000,,2013-04-17 21:51:00,
2013-04-17 15:12:00,50.0,-1.0,-100.00,NW,315,10.0,25.0,12,0.00,,,-99.99,1120.000000,,2013-04-17 22:12:00,
2013-04-17 15:22:00,50.0,-1.0,-100.00,NW,315,10.0,25.0,12,0.00,,,-99.99,1120.000000,,2013-04-17 22:22:00,
2013-04-17 15:33:00,50.0,-1.0,-100.00,NW,315,10.0,25.0,12,0.00,,,-99.99,1120.000000,,2013-04-17 22:33:00,
2013-04-17 15:42:00,50.0,-1.0,-100.00,NW,315,10.0,25.0,12,0.00,,,-99.99,1120.000000,,2013-04-17 22:42:00,
2013-04-17 15:51:00,47.0,-5.0,-100.00,NNW,331,13.0,31.0,11,0.00,,,0.00,973.000000,,2013-04-17 22:51:00,
2013-04-17 16:22:00,47.0,-5.0,-100.00,NNW,331,13.0,31.0,11,0.00,,,0.00,973.000000,,2013-04-17 23:22:00,
2013-04-17 16:32:00,47.0,-5.0,-100.00,NNW,331,13.0,31.0,11,0.00,,,0.00,973.000000,,2013-04-17 23:32:00,
2013-04-17 16:42:00,47.0,-5.0,-100.00,NNW,331,13.0,31.0,11,0.00,,,0.00,973.000000,,2013-04-17 23:42:00,
2013-04-17 16:51:00,46.0,-2.0,-100.00,NNW,334,13.0,25.0,13,0.00,,,0.00,759.000000,,2013-04-17 23:51:00,
2013-04-17 17:22:00,46.0,-2.0,-100.00,NNW,334,13.0,25.0,13,0.00,,,0.00,759.000000,,2013-04-18 00:22:00,
2013-04-17 17:32:00,46.0,-2.0,-100.00,NNW,334,13.0,25.0,13,0.00,,,0.00,759.000000,,2013-04-18 00:32:00,
2013-04-17 17:42:00,46.0,-2.0,-100.00,NNW,334,13.0,25.0,13,0.00,,,0.00,759.000000,,2013-04-18 00:42:00,
2013-04-17 17:51:00,46.0,1.0,-100.00,NNW,328,12.0,24.0,15,0.00,,,0.00,503.000000,,2013-04-18 00:51:00,
2013-04-17 18:12:00,46.0,1.0,-100.00,NNW,328,12.0,24.0,15,0.00,,,0.00,503.000000,,2013-04-18 01:12:00,
2013-04-17 18:22:00,46.0,1.0,-100.00,NNW,328,12.0,24.0,15,0.00,,,0.00,503.000000,,2013-04-18 01:22:00,
2013-04-17 18:32:00,46.0,1.0,-100.00,NNW,328,12.0,24.0,15,0.00,,,0.00,503.000000,,2013-04-18 01:32:00,
2013-04-17 18:42:00,46.0,1.0,-100.00,NNW,328,12.0,24.0,15,0.00,,,0.00,503.000000,,2013-04-18 01:42:00,
2013-04-17 18:51:00,43.0,1.0,-100.00,North,1,11.0,21.0,17,0.00,,,-99.99,198.000000,,2013-04-18 01:51:00,
2013-04-17 19:22:00,43.0,1.0,-100.00,North,1,11.0,21.0,17,0.00,,,-99.99,198.000000,,2013-04-18 02:22:00,
2013-04-17 19:32:00,43.0,1.0,-100.00,North,1,11.0,21.0,17,0.00,,,-99.99,198.000000,,2013-04-18 02:32:00,
2013-04-17 19:42:00,43.0,1.0,-100.00,North,1,11.0,21.0,17,0.00,,,-99.99,198.000000,,2013-04-18 02:42:00,
2013-04-17 19:51:00,39.0,1.0,-100.00,North,353,10.0,17.0,20,0.00,,,0.00,8.000000,,2013-04-18 02:51:00,
2013-04-17 20:22:00,39.0,1.0,-100.00,North,353,10.0,17.0,20,0.00,,,0.00,8.000000,,2013-04-18 03:22:00,
2013-04-17 20:33:00,39.0,1.0,-100.00,North,353,10.0,17.0,20,0.00,,,0.00,8.000000,,2013-04-18 03:33:00,
2013-04-17 20:43:00,39.0,1.0,-100.00,North,353,10.0,17.0,20,0.00,,,0.00,8.000000,,2013-04-18 03:43:00,
2013-04-17 20:51:00,37.0,1.0,-100.00,NNW,335,8.0,16.0,21,0.00,,,0.00,0.000000,,2013-04-18 03:51:00,
2013-04-17 21:23:00,37.0,1.0,-100.00,NNW,335,8.0,16.0,21,0.00,,,0.00,0.000000,,2013-04-18 04:23:00,
2013-04-17 21:33:00,37.0,1.0,-100.00,NNW,335,8.0,16.0,21,0.00,,,0.00,0.000000,,2013-04-18 04:33:00,
2013-04-17 21:43:00,37.0,1.0,-100.00,NNW,335,8.0,16.0,21,0.00,,,0.00,0.000000,,2013-04-18 04:43:00,
2013-04-17 21:51:00,35.0,-1.0,-100.00,NNW,331,7.0,14.0,21,0.00,,,0.00,0.000000,,2013-04-18 04:51:00,
2013-04-17 22:12:00,35.0,-1.0,-100.00,NNW,331,7.0,14.0,21,0.00,,,0.00,0.000000,,2013-04-18 05:12:00,
2013-04-17 22:22:00,35.0,-1.0,-100.00,NNW,331,7.0,14.0,21,0.00,,,0.00,0.000000,,2013-04-18 05:22:00,
2013-04-17 22:32:00,35.0,-1.0,-100.00,NNW,331,7.0,14.0,21,0.00,,,0.00,0.000000,,2013-04-18 05:32:00,
2013-04-17 22:42:00,35.0,-1.0,-100.00,NNW,331,7.0,14.0,21,0.00,,,0.00,0.000000,,2013-04-18 05:42:00,
2013-04-17 22:51:00,35.0,-1.0,-100.00,NNW,334,9.0,18.0,21,0.00,,,0.00,0.000000,,2013-04-18 05:51:00,
2013-04-17 23:22:00,35.0,-1.0,-100.00,NNW,334,9.0,18.0,21,0.00,,,0.00,0.000000,,2013-04-18 06:22:00,
2013-04-17 23:32:00,35.0,-1.0,-100.00,NNW,334,9.0,18.0,21,0.00,,,0.00,0.000000,,2013-04-18 06:32:00,
2013-04-17 23:42:00,35.0,-1.0,-100.00,NNW,334,9.0,18.0,21,0.00,,,0.00,0.000000,,2013-04-18 06:42:00,
2013-04-17 23:51:00,35.0,-3.0,-100.00,NNW,338,12.0,19.0,19,0.00,,,0.00,0.000000,,2013-04-18 06:51:00,